createdAt,value
2022-08-17T00:02:26.330Z,97315.09
2022-08-17T00:04:55.008Z,97299.34
2022-08-17T00:07:21.803Z,97303.44
2022-08-17T00:09:48.514Z,97306.72
2022-08-17T00:12:43.237Z,97271.47
2022-08-17T00:15:02.376Z,97296.88
2022-08-17T00:17:29.169Z,97267.97
2022-08-17T00:19:55.799Z,97262.13
2022-08-17T00:22:32.032Z,97296.75
2022-08-17T00:25:03.741Z,97327.13
2022-08-17T00:27:30.325Z,97320.41
2022-08-17T00:29:56.886Z,97309.19
2022-08-17T00:33:12.526Z,97272.91
2022-08-17T00:35:12.900Z,97282.81
2022-08-17T00:37:39.534Z,97274.50
2022-08-17T00:40:12.342Z,97269.63
2022-08-17T00:42:39.793Z,97256.28
2022-08-17T00:45:10.037Z,97280.31
2022-08-17T00:47:38.845Z,97271.00
2022-08-17T00:50:10.174Z,97284.16
2022-08-17T00:52:41.450Z,97290.81
2022-08-17T00:55:09.772Z,97293.34
2022-08-17T00:57:45.128Z,97286.84
2022-08-17T01:00:38.587Z,97292.88
2022-08-17T01:03:10.662Z,97274.22
2022-08-17T01:05:42.266Z,97288.69
2022-08-17T01:08:13.404Z,97264.25
2022-08-17T01:10:57.367Z,97266.81
2022-08-17T01:13:30.827Z,97280.06
2022-08-17T01:16:16.062Z,97288.06
2022-08-17T01:18:45.444Z,97285.66
2022-08-17T01:21:41.681Z,97245.47
2022-08-17T01:24:11.496Z,97263.50
2022-08-17T01:26:43.031Z,97224.09
2022-08-17T01:29:10.514Z,97219.91
2022-08-17T01:31:45.706Z,97198.00
2022-08-17T01:34:14.570Z,97198.00
2022-08-17T01:36:44.667Z,97235.72
2022-08-17T01:39:21.634Z,97236.81
2022-08-17T01:41:51.830Z,97234.00
2022-08-17T01:44:18.915Z,97219.22
2022-08-17T01:46:45.533Z,97189.63
2022-08-17T01:49:12.925Z,97212.59
2022-08-17T01:51:40.041Z,97198.63
2022-08-17T01:54:10.323Z,97204.22
2022-08-17T01:56:43.676Z,97184.28
2022-08-17T01:59:14.594Z,97205.94
2022-08-17T02:01:42.439Z,97200.84
2022-08-17T02:04:12.070Z,97207.75
2022-08-17T02:06:45.226Z,97206.13
2022-08-17T02:09:25.236Z,97188.06
2022-08-17T02:11:53.273Z,97217.91
2022-08-17T02:14:21.014Z,97213.91
2022-08-17T02:16:47.647Z,97191.09
2022-08-17T02:19:16.145Z,97213.56
2022-08-17T02:21:45.872Z,97215.91
2022-08-17T02:24:59.385Z,97197.41
2022-08-17T02:27:07.134Z,97231.53
2022-08-17T02:29:33.893Z,97234.19
2022-08-17T02:32:01.968Z,97252.03
2022-08-17T02:34:30.104Z,97250.97
2022-08-17T02:36:56.724Z,97278.97
2022-08-17T02:39:23.415Z,97244.72
2022-08-17T02:41:50.356Z,97273.72
2022-08-17T02:44:38.845Z,97277.94
2022-08-17T02:47:04.215Z,97310.31
2022-08-17T02:49:30.818Z,97331.66
2022-08-17T02:51:58.434Z,97359.19
2022-08-17T02:54:41.067Z,97373.28
2022-08-17T02:57:15.164Z,97390.59
2022-08-17T02:59:48.382Z,97385.78
2022-08-17T03:02:16.091Z,97377.75
2022-08-17T03:04:46.183Z,97318.41
2022-08-17T03:07:16.157Z,97329.69
2022-08-17T03:09:45.867Z,97365.84
2022-08-17T03:12:13.992Z,97348.09
2022-08-17T03:14:44.149Z,97345.19
2022-08-17T03:17:17.103Z,97333.16
2022-08-17T03:19:45.012Z,97309.59
2022-08-17T03:22:36.583Z,97381.81
2022-08-17T03:24:58.508Z,97482.22
2022-08-17T03:27:25.141Z,97524.91
2022-08-17T03:29:51.891Z,97544.09
2022-08-17T03:32:20.628Z,97423.81
2022-08-17T03:34:47.432Z,97451.06
2022-08-17T03:37:17.445Z,97459.97
2022-08-17T03:39:44.313Z,97476.31
2022-08-17T03:42:32.369Z,97486.00
2022-08-17T03:45:00.361Z,97493.22
2022-08-17T03:47:46.108Z,97475.66
2022-08-17T03:50:39.417Z,97486.66
2022-08-17T03:53:28.904Z,97443.69
2022-08-17T03:56:21.740Z,97420.69
2022-08-17T03:58:48.619Z,97411.72
2022-08-17T04:01:16.215Z,97391.38
2022-08-17T04:03:42.882Z,97381.00
2022-08-17T04:06:09.570Z,97373.25
2022-08-17T04:08:36.245Z,97383.25
2022-08-17T04:11:03.032Z,97370.16
2022-08-17T04:13:29.783Z,97356.63
2022-08-17T04:15:57.361Z,97334.03
2022-08-17T04:18:23.940Z,97349.72
2022-08-17T04:20:50.628Z,97347.56
2022-08-17T04:23:19.179Z,97347.72
2022-08-17T04:25:49.190Z,97347.47
2022-08-17T04:28:20.202Z,97326.31
2022-08-17T04:30:47.927Z,97361.69
2022-08-17T04:33:16.949Z,97360.66
2022-08-17T04:35:47.980Z,97359.59
2022-08-17T04:38:20.373Z,97359.75
2022-08-17T04:41:06.246Z,97355.06
2022-08-17T04:43:35.146Z,97350.22
2022-08-17T04:46:06.339Z,97348.84
2022-08-17T04:48:37.848Z,97349.59
2022-08-17T04:51:10.062Z,97347.72
2022-08-17T04:53:37.754Z,97343.28
2022-08-17T04:56:05.133Z,97358.06
2022-08-17T04:58:31.769Z,97358.91
2022-08-17T05:01:01.701Z,97365.06
2022-08-17T05:03:28.561Z,97332.69
2022-08-17T05:05:55.117Z,97342.94
2022-08-17T05:08:22.154Z,97360.50
2022-08-17T05:10:52.128Z,97333.41
2022-08-17T05:13:27.808Z,97347.84
2022-08-17T05:15:58.056Z,97352.72
2022-08-17T05:18:25.510Z,97350.25
2022-08-17T05:20:53.608Z,97361.44
2022-08-17T05:23:22.687Z,97363.88
2022-08-17T05:25:52.801Z,97357.97
2022-08-17T05:28:20.864Z,97361.97
2022-08-17T05:30:51.111Z,97364.19
2022-08-17T05:33:27.249Z,97385.56
2022-08-17T05:35:56.879Z,97375.19
2022-08-17T05:38:25.435Z,97389.50
2022-08-17T05:40:52.974Z,97399.69
2022-08-17T05:43:23.836Z,97383.72
2022-08-17T05:46:05.714Z,97403.25
2022-08-17T05:48:40.119Z,97410.63
2022-08-17T05:51:25.284Z,97405.66
2022-08-17T05:54:04.381Z,97410.13
2022-08-17T05:56:45.600Z,97410.88
2022-08-17T05:59:35.569Z,97416.84
2022-08-17T06:02:26.689Z,97425.19
2022-08-17T06:05:12.715Z,97429.88
2022-08-17T06:07:50.599Z,97440.22
2022-08-17T06:11:14.248Z,97437.47
2022-08-17T06:13:52.642Z,97430.47
2022-08-17T06:16:34.498Z,97426.66
2022-08-17T06:19:30.885Z,97439.19
2022-08-17T06:21:59.425Z,97427.31
2022-08-17T06:24:34.358Z,97434.84
2022-08-17T06:27:27.569Z,97436.03
2022-08-17T06:30:02.391Z,97433.16
2022-08-17T06:32:29.683Z,97415.84
2022-08-17T06:34:58.280Z,97430.56
2022-08-17T06:37:42.847Z,97434.34
2022-08-17T06:40:21.840Z,97424.94
2022-08-17T06:43:07.827Z,97405.66
2022-08-17T06:45:41.961Z,97421.19
2022-08-17T06:48:26.055Z,97430.41
2022-08-17T06:51:00.100Z,97418.53
2022-08-17T06:54:15.161Z,97423.09
2022-08-17T06:56:52.690Z,97431.03
2022-08-17T06:59:53.195Z,97423.28
2022-08-17T07:03:02.681Z,97438.03
2022-08-17T07:05:22.341Z,97447.22
2022-08-17T07:08:02.286Z,97448.56
2022-08-17T07:10:43.501Z,97448.22
2022-08-17T07:13:26.072Z,97442.50
2022-08-17T07:15:57.346Z,97450.47
2022-08-17T07:18:26.422Z,97447.06
2022-08-17T07:21:00.798Z,97450.16
2022-08-17T07:23:50.164Z,97440.50
2022-08-17T07:26:17.179Z,97445.41
2022-08-17T07:28:45.228Z,97444.81
2022-08-17T07:31:14.447Z,97434.50
2022-08-17T07:34:01.947Z,97413.63
2022-08-17T07:36:33.948Z,97411.59
2022-08-17T07:39:03.007Z,97451.06
2022-08-17T07:41:57.878Z,97445.16
2022-08-17T07:44:21.862Z,97437.75
2022-08-17T07:47:09.811Z,97418.50
2022-08-17T07:49:40.387Z,97418.63
2022-08-17T07:52:50.797Z,97425.34
2022-08-17T07:55:32.742Z,97417.97
2022-08-17T07:58:00.183Z,97433.56
2022-08-17T08:00:31.994Z,97421.69
2022-08-17T08:03:26.137Z,97441.63
2022-08-17T08:05:57.903Z,97427.94
2022-08-17T08:08:35.299Z,97420.78
2022-08-17T08:11:27.092Z,97432.28
2022-08-17T08:13:53.683Z,97428.00
2022-08-17T08:16:29.225Z,97431.03
2022-08-17T08:18:59.843Z,97442.94
2022-08-17T08:21:55.342Z,97419.06
2022-08-17T08:24:37.267Z,97435.53
2022-08-17T08:27:22.297Z,97431.66
2022-08-17T08:30:10.384Z,97436.13
2022-08-17T08:32:57.534Z,97440.38
2022-08-17T08:35:31.500Z,97442.41
2022-08-17T08:38:23.606Z,97437.97
2022-08-17T08:40:53.072Z,97430.22
2022-08-17T08:43:43.731Z,97431.03
2022-08-17T08:46:28.133Z,97420.72
2022-08-17T08:49:29.692Z,97428.84
2022-08-17T08:52:25.711Z,97426.69
2022-08-17T08:55:08.235Z,97423.69
2022-08-17T08:57:43.017Z,97428.06
2022-08-17T09:00:21.088Z,97428.56
2022-08-17T09:03:18.209Z,97415.59
2022-08-17T09:05:44.768Z,97419.91
2022-08-17T09:08:39.066Z,97416.97
2022-08-17T09:12:04.057Z,97421.50
2022-08-17T09:15:25.626Z,97418.00
2022-08-17T09:18:59.210Z,97409.63
2022-08-17T09:20:57.273Z,97397.69
2022-08-17T09:23:42.483Z,97394.38
2022-08-17T09:26:23.023Z,97403.94
2022-08-17T09:29:00.280Z,97385.56
2022-08-17T09:31:49.472Z,97380.81
2022-08-17T09:34:22.211Z,97386.28
2022-08-17T09:37:14.550Z,97395.56
2022-08-17T09:40:21.538Z,97385.97
2022-08-17T09:42:59.460Z,97385.56
2022-08-17T09:46:04.366Z,97387.72
2022-08-17T09:48:37.689Z,97399.03
2022-08-17T09:51:13.833Z,97375.50
2022-08-17T09:53:41.428Z,97405.69
2022-08-17T09:56:24.213Z,97416.00
2022-08-17T09:59:34.185Z,97403.81
2022-08-17T10:02:42.952Z,97411.63
2022-08-17T10:05:51.261Z,97410.44
2022-08-17T10:08:41.090Z,97419.81
2022-08-17T10:11:46.478Z,97416.41
2022-08-17T10:14:44.323Z,97404.47
2022-08-17T10:17:37.994Z,97412.13
2022-08-17T10:20:30.190Z,97413.41
2022-08-17T10:23:21.036Z,97409.13
2022-08-17T10:26:05.733Z,97422.56
2022-08-17T10:28:48.436Z,97419.03
2022-08-17T10:31:34.585Z,97408.59
2022-08-17T10:34:40.360Z,97404.72
2022-08-17T10:37:41.410Z,97412.47
2022-08-17T10:40:24.622Z,97393.06
2022-08-17T10:43:13.720Z,97405.09
2022-08-17T10:46:09.469Z,97393.50
2022-08-17T10:49:21.196Z,97393.44
2022-08-17T10:52:01.087Z,97375.47
2022-08-17T10:54:39.119Z,97400.09
2022-08-17T10:57:34.413Z,97388.13
2022-08-17T11:00:17.783Z,97378.97
2022-08-17T11:02:55.018Z,97375.16
2022-08-17T11:05:44.716Z,97386.75
2022-08-17T11:08:26.396Z,97385.25
2022-08-17T11:10:53.032Z,97390.34
2022-08-17T11:13:56.873Z,97382.28
2022-08-17T11:16:47.650Z,97374.13
2022-08-17T11:19:45.351Z,97361.66
2022-08-17T11:22:34.223Z,97364.78
2022-08-17T11:25:19.330Z,97353.19
2022-08-17T11:27:53.460Z,97357.50
2022-08-17T11:30:55.128Z,97364.59
2022-08-17T11:33:30.511Z,97363.66
2022-08-17T11:36:17.802Z,97364.19
2022-08-17T11:39:15.150Z,97344.06
2022-08-17T11:41:48.895Z,97353.19
2022-08-17T11:44:30.814Z,97342.41
2022-08-17T11:47:29.902Z,97341.78
2022-08-17T11:50:33.493Z,97338.88
2022-08-17T11:53:00.710Z,97319.28
2022-08-17T11:55:38.228Z,97327.06
2022-08-17T11:58:07.143Z,97325.16
2022-08-17T12:00:46.364Z,97318.28
2022-08-17T12:03:36.865Z,97329.94
2022-08-17T12:06:30.309Z,97321.44
2022-08-17T12:09:13.968Z,97332.84
2022-08-17T12:12:12.480Z,97333.09
2022-08-17T12:17:41.669Z,97355.88
2022-08-17T12:20:23.487Z,97339.56
2022-08-17T12:23:04.374Z,97338.69
2022-08-17T12:26:00.494Z,97340.56
2022-08-17T12:28:33.711Z,97341.94
2022-08-17T12:31:07.305Z,97323.53
2022-08-17T12:33:40.064Z,97324.00
2022-08-17T12:36:09.220Z,97310.63
2022-08-17T12:38:37.691Z,97307.91
2022-08-17T12:41:26.438Z,97327.13
2022-08-17T12:44:02.371Z,97328.69
2022-08-17T12:47:00.433Z,97330.97
2022-08-17T12:49:29.658Z,97327.81
2022-08-17T12:52:27.879Z,97312.34
2022-08-17T12:55:23.103Z,97341.16
2022-08-17T12:57:59.671Z,97320.41
2022-08-17T13:00:39.963Z,97344.81
2022-08-17T13:03:15.603Z,97320.59
2022-08-17T13:05:52.746Z,97352.22
2022-08-17T13:08:50.484Z,97305.44
2022-08-17T13:11:21.804Z,97329.53
2022-08-17T13:13:55.122Z,97325.69
2022-08-17T13:16:26.983Z,97324.63
2022-08-17T13:19:05.787Z,97308.28
2022-08-17T13:21:33.743Z,97306.38
2022-08-17T13:24:03.329Z,97316.69
2022-08-17T13:26:35.569Z,97307.44
2022-08-17T13:29:06.300Z,97297.38
2022-08-17T13:31:52.566Z,97295.34
2022-08-17T13:34:26.884Z,97307.03
2022-08-17T13:37:34.731Z,97299.94
2022-08-17T13:40:16.127Z,97296.72
2022-08-17T13:42:51.935Z,97295.22
2022-08-17T13:45:35.165Z,97296.84
2022-08-17T13:48:25.347Z,97289.75
2022-08-17T13:50:54.862Z,97294.69
2022-08-17T13:53:36.845Z,97303.94
2022-08-17T13:56:03.838Z,97299.97
2022-08-17T13:58:37.772Z,97270.84
2022-08-17T14:01:29.629Z,97270.69
2022-08-17T14:03:57.227Z,97284.53
2022-08-17T14:06:52.275Z,97287.84
2022-08-17T14:09:14.354Z,97275.50
2022-08-17T14:11:42.127Z,97266.78
2022-08-17T14:14:08.769Z,97282.31
2022-08-17T14:16:35.322Z,97304.72
2022-08-17T14:19:01.899Z,97304.63
2022-08-17T14:21:28.481Z,97299.00
2022-08-17T14:23:55.165Z,97308.47
2022-08-17T14:26:21.873Z,97305.91
2022-08-17T14:28:56.317Z,97335.72
2022-08-17T14:31:23.795Z,97336.53
2022-08-17T14:33:51.058Z,97330.03
2022-08-17T14:36:17.684Z,97328.13
2022-08-17T14:38:45.087Z,97326.41
2022-08-17T14:41:11.739Z,97342.22
2022-08-17T14:43:39.888Z,97348.09
2022-08-17T14:46:06.581Z,97368.06
2022-08-17T14:48:35.845Z,97404.56
2022-08-17T14:51:06.154Z,97419.47
2022-08-17T14:53:33.019Z,97418.63
2022-08-17T14:56:01.568Z,97446.34
2022-08-17T14:58:29.618Z,97443.44
2022-08-17T15:00:57.581Z,97403.78
2022-08-17T15:03:26.613Z,97373.78
2022-08-17T15:05:53.894Z,97394.06
2022-08-17T15:08:20.535Z,97407.75
2022-08-17T15:10:49.198Z,97423.22
2022-08-17T15:13:20.820Z,97424.00
2022-08-17T15:15:48.514Z,97436.38
2022-08-17T15:18:15.842Z,97423.28
2022-08-17T15:20:44.333Z,97454.69
2022-08-17T15:23:22.479Z,97443.03
2022-08-17T15:25:52.640Z,97440.47
2022-08-17T15:28:22.828Z,97412.47
2022-08-17T15:30:54.399Z,97425.84
2022-08-17T15:33:30.349Z,97428.38
2022-08-17T15:35:59.824Z,97454.22
2022-08-17T15:38:28.498Z,97434.38
2022-08-17T15:40:57.643Z,97444.22
2022-08-17T15:43:28.296Z,97437.66
2022-08-17T15:46:25.581Z,97424.97
2022-08-17T15:49:03.314Z,97419.91
2022-08-17T15:51:34.662Z,97413.00
2022-08-17T15:54:19.280Z,97422.28
2022-08-17T15:56:49.974Z,97421.75
2022-08-17T15:59:16.704Z,97436.69
2022-08-17T16:02:21.606Z,97430.81
2022-08-17T16:04:31.883Z,97446.47
2022-08-17T16:06:59.795Z,97474.56
2022-08-17T16:09:26.592Z,97479.81
2022-08-17T16:11:55.457Z,97473.47
2022-08-17T16:14:32.391Z,97486.97
2022-08-17T16:17:00.670Z,97479.69
2022-08-17T16:19:29.525Z,97478.75
2022-08-17T16:21:56.451Z,97472.66
2022-08-17T16:24:29.688Z,97477.81
2022-08-17T16:26:56.836Z,97481.41
2022-08-17T16:29:26.610Z,97488.97
2022-08-17T16:31:57.442Z,97492.09
2022-08-17T16:34:24.382Z,97488.91
2022-08-17T16:36:56.122Z,97506.94
2022-08-17T16:39:29.024Z,97495.34
2022-08-17T16:41:56.810Z,97507.00
2022-08-17T16:44:28.998Z,97508.47
2022-08-17T16:46:56.010Z,97501.63
2022-08-17T16:49:35.244Z,97479.81
2022-08-17T16:52:04.347Z,97486.88
2022-08-17T16:54:31.313Z,97480.19
2022-08-17T16:56:58.197Z,97493.22
2022-08-17T16:59:30.814Z,97494.59
2022-08-17T17:02:11.414Z,97505.59
2022-08-17T17:04:51.008Z,97485.16
2022-08-17T17:07:29.431Z,97461.19
2022-08-17T17:09:56.993Z,97481.00
2022-08-17T17:15:17.664Z,97457.44
2022-08-17T17:17:49.861Z,97460.13
2022-08-17T17:20:26.257Z,97492.50
2022-08-17T17:23:08.276Z,97508.00
2022-08-17T17:26:24.640Z,97514.75
2022-08-17T17:29:09.268Z,97504.81
2022-08-17T17:31:54.826Z,97486.22
2022-08-17T17:34:26.019Z,97481.00
2022-08-17T17:36:57.953Z,97499.53
2022-08-17T17:39:43.559Z,97500.34
2022-08-17T17:42:14.791Z,97508.25
2022-08-17T17:45:09.888Z,97508.50
2022-08-17T17:47:37.228Z,97524.91
2022-08-17T17:50:06.094Z,97519.34
2022-08-17T17:52:47.333Z,97532.13
2022-08-17T17:55:54.372Z,97528.06
2022-08-17T17:58:55.693Z,97526.75
2022-08-17T18:01:31.446Z,97534.91
2022-08-17T18:04:20.651Z,97536.47
2022-08-17T18:07:10.085Z,97550.13
2022-08-17T18:09:53.789Z,97557.19
2022-08-17T18:12:40.677Z,97547.25
2022-08-17T18:15:51.547Z,97565.53
2022-08-17T18:18:18.118Z,97560.22
2022-08-17T18:20:53.664Z,97556.06
2022-08-17T18:23:27.584Z,97539.00
2022-08-17T18:25:58.659Z,97534.38
2022-08-17T18:28:34.644Z,97537.94
2022-08-17T18:31:16.773Z,97535.25
2022-08-17T18:33:57.623Z,97543.00
2022-08-17T18:36:34.188Z,97535.66
2022-08-17T18:39:27.208Z,97542.25
2022-08-17T18:41:56.591Z,97545.28
2022-08-17T18:44:43.868Z,97533.09
2022-08-17T18:47:17.075Z,97537.84
2022-08-17T18:49:48.960Z,97522.59
2022-08-17T18:52:29.837Z,97528.34
2022-08-17T18:55:22.369Z,97548.88
2022-08-17T18:57:55.670Z,97544.09
2022-08-17T19:00:43.622Z,97551.63
2022-08-17T19:03:16.126Z,97551.00
2022-08-17T19:05:44.376Z,97548.13
2022-08-17T19:08:40.644Z,97535.66
2022-08-17T19:11:24.401Z,97529.06
2022-08-17T19:14:05.847Z,97536.47
2022-08-17T19:16:49.352Z,97535.31
2022-08-17T19:19:25.923Z,97539.88
2022-08-17T19:22:28.349Z,97533.22
2022-08-17T19:25:09.582Z,97533.47
2022-08-17T19:27:57.528Z,97544.81
2022-08-17T19:30:26.972Z,97546.19
2022-08-17T19:32:57.407Z,97536.03
2022-08-17T19:35:50.600Z,97550.66
2022-08-17T19:38:50.789Z,97569.81
2022-08-17T19:41:51.019Z,97567.09
2022-08-17T19:44:18.001Z,97568.06
2022-08-17T19:46:56.014Z,97560.38
2022-08-17T19:49:40.903Z,97552.38
2022-08-17T19:52:30.566Z,97573.06
2022-08-17T19:55:32.082Z,97554.19
2022-08-17T19:58:12.514Z,97566.31
2022-08-17T20:00:51.440Z,97561.66
2022-08-17T20:03:29.403Z,97548.59
2022-08-17T20:06:15.054Z,97527.22
2022-08-17T20:08:57.542Z,97510.88
2022-08-17T20:11:32.080Z,97525.34
2022-08-17T20:14:15.765Z,97538.78
2022-08-17T20:16:42.545Z,97551.63
2022-08-17T20:19:24.094Z,97556.63
2022-08-17T20:22:15.410Z,97549.53
2022-08-17T20:24:53.363Z,97561.44
2022-08-17T20:27:34.215Z,97566.56
2022-08-17T20:30:24.262Z,97560.16
2022-08-17T20:32:58.405Z,97542.88
2022-08-17T20:35:32.806Z,97575.00
2022-08-17T20:38:04.890Z,97560.97
2022-08-17T20:41:02.741Z,97555.25
